Beowawe, Nevada
Current Conditions -  °F | °C
As of 9:56 PM on Saturday 22 Nov 2014 (Local Time) from KEKO Reporting Station
Broken Clouds Broken Clouds  
Wind Chill: 28°   Ceiling: 5500
Heat Index: 33°   Visibility: 10mi
Dew Point: 26°   Wind: 6mph
Humidity: 75%   Direction: 240°WSW
Pressure: 30.1"   Gusts: NA
Location:  40.4796°N, 116.369°W
Report Text: KEKO 230556Z AUTO 24005KT 10SM BKN055 01/M03 A3010 RMK AO2 SLP190 60008 T00061033 10033 20006 51029
Loading
Personal Weather Stations






























Interactive Weather Map New forecast layout! Learn more

10-Day Weather Forecast

Advertisements
Track Severe Weather on mobile